Data for 05/15/2015

Time Sea-Level Adjusted Pressure Absolute Pressure Temperature Relative Humidity Dew Point   
(mb) (inHg) (mb) (inHg) (C) (F) (%) (C) (F)
00:05 1012 29.88 841 24.83 8.2 46.7 84 5.6 42.1
00:10 1012 29.88 841 24.83 8.2 46.7 84 5.7 42.2
00:15 1012 29.88 841 24.83 8.2 46.8 84 5.7 42.3
00:20 1012 29.88 841 24.83 8.2 46.7 85 5.8 42.5
00:25 1012 29.88 841 24.83 8.2 46.8 86 6 42.8
00:30 1012 29.88 841 24.83 8.2 46.7 87 6.1 42.9
00:35 1012 29.88 841 24.83 8.1 46.5 87 6 42.9
00:40 1012 29.88 841 24.83 8 46.5 88 6.1 43
00:45 1012 29.88 841 24.83 8 46.5 87 6 42.9
00:50 1012 29.88 841 24.83 8.1 46.5 88 6.1 43
00:55 1012 29.88 841 24.83 8.1 46.5 88 6.2 43.1
01:00 1012 29.88 841 24.83 8 46.5 88 6.2 43.1
01:05 1012 29.88 841 24.83 8 46.4 88 6.2 43.2
01:10 1011 29.85 841 24.83 8 46.4 88 6.2 43.2
01:15 1011 29.85 841 24.83 8 46.4 88 6.2 43.1
01:20 1011 29.85 841 24.83 8 46.4 88 6.1 43
01:25 1011 29.85 840 24.81 8.1 46.6 87 6.1 43
01:30 1011 29.85 840 24.81 8.2 46.7 87 6.1 43
01:35 1011 29.85 840 24.81 8.2 46.8 87 6.2 43.1
01:40 1011 29.85 840 24.81 8.2 46.8 86 6 42.9
01:45 1011 29.85 840 24.81 8.3 47 85 6 42.7
01:50 1011 29.85 840 24.81 8.4 47.1 85 6.1 42.9
01:55 1011 29.85 840 24.81 8.3 47 86 6.1 43.1
02:00 1011 29.85 840 24.81 8.3 46.9 87 6.2 43.1
02:05 1011 29.85 840 24.81 8.2 46.8 87 6.1 43
02:10 1011 29.85 840 24.81 8.2 46.7 87 6.2 43.1
02:15 1011 29.85 840 24.81 8.2 46.7 87 6.1 43
02:20 1011 29.85 840 24.81 8.1 46.6 87 6.1 43
02:25 1011 29.85 840 24.81 8.1 46.6 88 6.2 43.1
02:30 1011 29.85 840 24.81 8.1 46.5 88 6.2 43.1
02:35 1011 29.85 840 24.81 8 46.5 88 6.2 43.1
02:40 1011 29.85 840 24.81 8 46.4 88 6.1 43.1
02:45 1011 29.85 840 24.81 8 46.4 88 6.2 43.1
02:50 1011 29.85 840 24.81 7.9 46.3 88 6.1 43
02:55 1011 29.85 840 24.81 7.9 46.2 88 6.1 43
03:00 1011 29.85 840 24.81 8 46.3 88 6.1 43.1
03:05 1011 29.85 840 24.81 8 46.4 88 6.2 43.1
03:10 1011 29.85 840 24.81 8.1 46.5 88 6.1 43
03:15 1011 29.85 840 24.81 8.1 46.5 88 6.1 43
03:20 1010 29.83 840 24.81 8.1 46.5 88 6.2 43.1
03:25 1010 29.83 840 24.81 8.1 46.6 88 6.2 43.1
03:30 1010 29.83 840 24.81 8.1 46.6 88 6.2 43.2
03:35 1010 29.83 839 24.78 8.2 46.7 87 6.1 43
03:40 1010 29.83 839 24.78 8.3 46.9 87 6.2 43.1
03:45 1010 29.83 839 24.78 8.3 46.9 86 6.1 42.9
03:50 1010 29.83 839 24.78 8.4 47.1 85 6 42.9
03:55 1010 29.83 840 24.81 8.4 47.2 84 6 42.7
04:00 1010 29.83 840 24.81 8.6 47.4 84 6 42.7
04:05 1010 29.83 840 24.81 8.6 47.5 84 6 42.9
04:10 1010 29.83 840 24.81 8.6 47.4 84 6 42.9
04:15 1010 29.83 840 24.81 8.5 47.3 85 6.1 43
04:20 1010 29.83 840 24.81 8.4 47.2 86 6.2 43.2
04:25 1010 29.83 840 24.81 8.3 47 86 6.2 43.1
04:30 1010 29.83 840 24.81 8.3 46.9 87 6.2 43.2
04:35 1010 29.83 840 24.81 8.2 46.7 88 6.3 43.3
04:40 1010 29.83 840 24.81 8.1 46.6 88 6.3 43.3
04:45 1010 29.83 840 24.81 8.1 46.6 87 6.1 43.1
04:50 1010 29.83 840 24.81 8.1 46.6 87 6.1 43.1
04:55 1010 29.83 840 24.81 8.1 46.6 87 6.1 43
05:00 1010 29.83 840 24.81 8.1 46.5 87 6.1 43
05:05 1010 29.83 840 24.81 8 46.4 88 6.2 43.1
05:10 1010 29.83 840 24.81 8 46.3 88 6.1 43.1
05:15 1010 29.83 839 24.78 7.9 46.3 88 6.1 42.9
05:20 1010 29.83 839 24.78 7.9 46.3 88 6.1 43
05:25 1010 29.83 839 24.78 7.9 46.3 88 6.1 43
05:30 1010 29.83 839 24.78 8 46.3 88 6.2 43.1
05:35 1010 29.83 839 24.78 8 46.3 88 6.1 43
05:40 1010 29.83 839 24.78 8 46.4 87 6 42.8
05:45 1010 29.83 839 24.78 8.1 46.6 86 6 42.7
05:50 1010 29.83 839 24.78 8.2 46.7 86 5.9 42.7
05:55 1010 29.83 839 24.78 8.3 46.9 85 5.8 42.5
06:00 1010 29.83 839 24.78 8.3 47 84 5.8 42.4
06:05 1010 29.83 839 24.78 8.4 47 84 5.8 42.4
06:10 1010 29.83 839 24.78 8.3 47 84 5.8 42.4
06:15 1010 29.83 839 24.78 8.3 46.9 84 5.8 42.4
06:20 1010 29.83 839 24.78 8.3 46.9 85 5.9 42.5
06:25 1010 29.83 839 24.78 8.3 46.9 84 5.8 42.4
06:30 1010 29.83 839 24.78 8.2 46.8 85 5.8 42.5
06:35 1010 29.83 839 24.78 8.2 46.7 84 5.7 42.3
06:40 1010 29.83 839 24.78 8.2 46.7 84 5.7 42.2
06:45 1010 29.83 839 24.78 8.2 46.7 84 5.6 42.1
06:50 1010 29.83 839 24.78 8.2 46.8 84 5.6 42.2
06:55 1010 29.83 839 24.78 8.2 46.7 84 5.7 42.3
07:00 1010 29.83 840 24.81 8.1 46.6 84 5.6 42.1
07:05 1010 29.83 840 24.81 8.1 46.7 83 5.5 41.9
07:10 1010 29.83 840 24.81 8.1 46.5 84 5.5 41.8
07:15 1010 29.83 840 24.81 8.1 46.5 83 5.3 41.6
07:20 1010 29.83 840 24.81 8 46.4 83 5.4 41.6
07:25 1010 29.83 840 24.81 8 46.3 83 5.3 41.5
07:30 1010 29.83 840 24.81 8 46.4 83 5.3 41.6
07:35 1010 29.83 840 24.81 8 46.3 83 5.3 41.5
07:40 1010 29.83 840 24.81 7.8 46.1 84 5.3 41.5
07:45 1010 29.83 839 24.78 7.8 46.1 83 5.2 41.3
07:50 1010 29.83 839 24.78 7.9 46.1 83 5.2 41.4
07:55 1010 29.83 839 24.78 7.8 46 84 5.3 41.5
08:00 1010 29.83 839 24.78 7.8 46 84 5.2 41.4
08:05 1010 29.83 839 24.78 7.8 46 84 5.2 41.4
08:10 1010 29.83 839 24.78 7.8 46.1 84 5.3 41.5
08:15 1010 29.83 839 24.78 7.9 46.1 83 5.2 41.3
08:20 1010 29.83 839 24.78 7.9 46.1 83 5.2 41.3
08:25 1010 29.83 839 24.78 7.9 46.2 82 5.1 41.1
08:30 1010 29.83 839 24.78 8.1 46.5 82 5.3 41.5
08:35 1010 29.83 839 24.78 8.1 46.6 82 5.2 41.4
08:40 1010 29.83 839 24.78 8.2 46.7 81 5.2 41.3
08:45 1010 29.83 839 24.78 8.3 46.9 81 5.2 41.3
08:50 1010 29.83 839 24.78 8.4 47.1 81 5.3 41.5
08:55 1010 29.83 839 24.78 8.4 47.2 80 5.2 41.4
09:00 1010 29.83 839 24.78 8.6 47.6 79 5.2 41.3
09:05 1010 29.83 839 24.78 8.6 47.6 80 5.3 41.6
09:10 1010 29.83 839 24.78 8.5 47.4 78 5 41
09:15 1010 29.83 839 24.78 8.6 47.5 78 5 41.1
09:20 1010 29.83 839 24.78 8.7 47.6 79 5.2 41.3
09:25 1010 29.83 839 24.78 9.1 48.3 76 5.1 41.2
09:30 1010 29.83 839 24.78 8.9 48 78 5.2 41.4
09:35 1010 29.83 839 24.78 9.3 48.7 76 5.3 41.6
09:40 1010 29.83 839 24.78 9.5 49.1 76 5.5 41.9
09:45 1010 29.83 839 24.78 9.5 49 75 5.3 41.6
09:50 1010 29.83 839 24.78 9.3 48.8 75 5.2 41.3
09:55 1010 29.83 839 24.78 9.5 49 76 5.5 41.9
10:00 1010 29.83 839 24.78 9.5 49 75 5.2 41.4
10:05 1010 29.83 839 24.78 9.8 49.7 74 5.4 41.8
10:10 1009 29.8 839 24.78 9.8 49.7 74 5.4 41.8
10:15 1009 29.8 839 24.78 9.9 49.8 74 5.4 41.8
10:20 1009 29.8 839 24.78 9.9 49.9 74 5.6 42.1
10:25 1009 29.8 839 24.78 9.8 49.7 74 5.4 41.6
10:30 1009 29.8 839 24.78 10.3 50.6 71 5.3 41.6
10:35 1009 29.8 839 24.78 10.1 50.2 73 5.6 42
10:40 1009 29.8 839 24.78 9.9 49.7 73 5.2 41.4
10:45 1009 29.8 839 24.78 10.1 50.1 72 5.4 41.7
10:50 1009 29.8 839 24.78 10 49.9 73 5.5 41.8
10:55 1009 29.8 839 24.78 9.7 49.4 73 5.1 41.2
11:00 1009 29.8 839 24.78 9.8 49.7 74 5.5 41.9
11:05 1009 29.8 839 24.78 9.6 49.3 74 5.3 41.5
11:10 1009 29.8 838 24.75 9.5 49.1 75 5.3 41.6
11:15 1009 29.8 839 24.78 9.6 49.3 74 5.1 41.2
11:20 1009 29.8 838 24.75 9.8 49.7 74 5.4 41.7
11:25 1009 29.8 838 24.75 9.8 49.6 74 5.4 41.7
11:30 1009 29.8 838 24.75 9.8 49.7 73 5.3 41.6
11:35 1009 29.8 838 24.75 9.9 49.8 75 5.7 42.2
11:40 1009 29.8 838 24.75 10 50 74 5.6 42.1
11:45 1009 29.8 838 24.75 9.9 49.8 74 5.6 42
11:50 1009 29.8 839 24.78 10.2 50.4 71 5.3 41.5
11:55 1009 29.8 839 24.78 10.7 51.3 71 5.8 42.4
12:00 1009 29.8 838 24.75 10.8 51.5 73 6.1 43.1
12:05 1009 29.8 838 24.75 10.4 50.7 73 5.9 42.5
12:10 1009 29.8 838 24.75 10.4 50.7 73 5.7 42.2
12:15 1009 29.8 838 24.75 10.4 50.6 72 5.6 42.1
12:20 1009 29.8 838 24.75 10.4 50.7 73 5.7 42.3
12:25 1009 29.8 838 24.75 10.6 51.1 72 5.9 42.5
12:30 1009 29.8 838 24.75 10.1 50.2 73 5.6 42.1
12:35 1009 29.8 838 24.75 10.1 50.3 76 6.2 43.1
12:40 1009 29.8 838 24.75 9.9 49.8 76 5.9 42.7
12:45 1009 29.8 838 24.75 9.6 49.2 76 5.6 42.1
12:50 1009 29.8 838 24.75 9.6 49.2 77 5.8 42.4
12:55 1009 29.8 838 24.75 9.3 48.7 78 5.6 42.1
13:00 1009 29.8 838 24.75 9.2 48.6 80 5.9 42.6
13:05 1009 29.8 838 24.75 9.2 48.6 79 5.8 42.5
13:10 1009 29.8 838 24.75 9 48.1 81 6 42.7
13:15 1009 29.8 838 24.75 8.8 47.8 84 6.2 43.1
13:20 1009 29.8 838 24.75 8.7 47.7 83 6.1 42.9
13:25 1009 29.8 838 24.75 8.7 47.7 85 6.3 43.3
13:30 1009 29.8 838 24.75 8.8 47.8 84 6.2 43.1
13:35 1009 29.8 838 24.75 8.9 48 82 6 42.8
13:40 1009 29.8 838 24.75 9 48.1 81 5.9 42.6
13:45 1009 29.8 838 24.75 9 48.3 80 5.8 42.5
13:50 1009 29.8 838 24.75 9.3 48.8 79 5.9 42.6
13:55 1009 29.8 838 24.75 9.3 48.7 80 6.1 43
14:00 1009 29.8 838 24.75 9.1 48.4 83 6.3 43.4
14:05 1008 29.77 838 24.75 9.1 48.3 81 6 42.9
14:10 1008 29.77 838 24.75 9.4 48.9 79 6 42.8
14:15 1008 29.77 838 24.75 9.9 49.9 76 5.9 42.7
14:20 1008 29.77 838 24.75 10.4 50.7 74 6 42.8
14:25 1008 29.77 837 24.72 10.5 50.9 73 5.9 42.7
14:30 1008 29.77 837 24.72 10.3 50.5 75 6 42.8
14:35 1008 29.77 837 24.72 10.6 51.1 72 5.8 42.4
14:40 1008 29.77 837 24.72 11.2 52.2 70 6 42.8
14:45 1008 29.77 837 24.72 11.2 52.2 69 5.8 42.4
14:50 1008 29.77 837 24.72 11.4 52.6 70 6.1 43
14:55 1008 29.77 837 24.72 11.2 52.2 70 6 42.7
15:00 1008 29.77 837 24.72 11.7 53 69 6.1 43
15:05 1008 29.77 837 24.72 12.1 53.8 67 6.1 43
15:10 1008 29.77 837 24.72 11.9 53.5 68 6.2 43.1
15:15 1008 29.77 837 24.72 11.9 53.4 67 5.9 42.7
15:20 1008 29.77 837 24.72 12.1 53.7 66 6 42.7
15:25 1008 29.77 837 24.72 12.2 53.9 65 5.9 42.7
15:30 1008 29.77 837 24.72 12.1 53.8 65 5.8 42.4
15:35 1007 29.74 837 24.72 12.4 54.3 64 5.8 42.5
15:40 1007 29.74 837 24.72 12.5 54.4 63 5.7 42.2
15:45 1007 29.74 837 24.72 12.2 53.9 64 5.6 42.1
15:50 1008 29.77 837 24.72 12.2 53.9 63 5.4 41.7
15:55 1008 29.77 837 24.72 12.4 54.2 65 5.9 42.7
16:00 1008 29.77 837 24.72 12 53.6 63 5.3 41.5
16:05 1008 29.77 837 24.72 11.9 53.4 66 5.7 42.3
16:10 1008 29.77 837 24.72 11.9 53.4 65 5.5 42
16:15 1008 29.77 837 24.72 12.1 53.8 66 6 42.7
16:20 1008 29.77 837 24.72 12 53.5 67 6 42.8
16:25 1008 29.77 837 24.72 11.7 53.1 67 5.9 42.6
16:30 1008 29.77 837 24.72 11.4 52.6 68 5.8 42.5
16:35 1008 29.77 837 24.72 11.2 52.1 69 5.7 42.3
16:40 1008 29.77 837 24.72 10.9 51.7 71 5.9 42.7
16:45 1008 29.77 837 24.72 10.8 51.4 70 5.6 42.1
16:50 1008 29.77 837 24.72 10.8 51.5 70 5.6 42.1
16:55 1008 29.77 837 24.72 10.8 51.4 71 5.7 42.2
17:00 1008 29.77 837 24.72 10.8 51.4 71 5.6 42.2
17:05 1008 29.77 837 24.72 10.8 51.4 70 5.5 41.9
17:10 1008 29.77 837 24.72 10.7 51.3 70 5.4 41.8
17:15 1008 29.77 837 24.72 10.7 51.3 70 5.5 41.8
17:20 1008 29.77 837 24.72 10.8 51.4 70 5.5 41.8
17:25 1008 29.77 837 24.72 10.6 51.1 71 5.6 42.1
17:30 1008 29.77 837 24.72 10.7 51.2 71 5.6 42.1
17:35 1008 29.77 837 24.72 10.7 51.2 70 5.4 41.8
17:40 1008 29.77 837 24.72 10.6 51 69 5.3 41.5
17:45 1008 29.77 837 24.72 10.5 50.9 70 5.4 41.7
17:50 1008 29.77 837 24.72 10.3 50.5 72 5.6 42
17:55 1008 29.77 838 24.75 10.2 50.3 72 5.3 41.5
18:00 1008 29.77 837 24.72 10 50.1 73 5.4 41.8
18:05 1008 29.77 838 24.75 9.9 49.9 73 5.4 41.6
18:10 1008 29.77 838 24.75 9.9 49.8 73 5.3 41.5
18:15 1008 29.77 838 24.75 10 50 72 5.3 41.5
18:20 1008 29.77 838 24.75 10 50 72 5.2 41.4
18:25 1008 29.77 838 24.75 10 50 72 5.3 41.5
18:30 1009 29.8 838 24.75 9.9 49.8 73 5.3 41.6
18:35 1009 29.8 838 24.75 9.9 49.7 73 5.3 41.5
18:40 1008 29.77 838 24.75 9.8 49.7 74 5.4 41.8
18:45 1008 29.77 838 24.75 9.7 49.5 75 5.6 42.1
18:50 1008 29.77 838 24.75 9.4 49 77 5.6 42
18:55 1009 29.8 838 24.75 9.3 48.8 77 5.5 42
19:00 1009 29.8 838 24.75 9.3 48.7 77 5.4 41.7
19:05 1008 29.77 838 24.75 9.3 48.7 77 5.5 41.9
19:10 1008 29.77 838 24.75 9.2 48.6 78 5.6 42
19:15 1008 29.77 838 24.75 9.2 48.5 78 5.6 42
19:20 1008 29.77 838 24.75 9.2 48.5 79 5.7 42.2
19:25 1008 29.77 838 24.75 9.1 48.4 80 5.8 42.5
19:30 1008 29.77 838 24.75 9.1 48.3 80 5.8 42.4
19:35 1009 29.8 838 24.75 9.1 48.3 81 5.9 42.7
19:40 1009 29.8 838 24.75 8.9 48.1 82 6 42.8
19:45 1008 29.77 838 24.75 8.9 48 82 6 42.8
19:50 1008 29.77 838 24.75 8.8 47.9 82 6 42.8
19:55 1008 29.77 838 24.75 8.8 47.9 82 6 42.8
20:00 1008 29.77 838 24.75 8.8 47.9 82 6 42.8
20:05 1008 29.77 838 24.75 8.8 47.9 82 6 42.8
20:10 1008 29.77 838 24.75 8.8 47.9 82 6 42.8
20:15 1008 29.77 838 24.75 8.9 48 82 6 42.8
20:20 1008 29.77 838 24.75 8.9 48 82 6 42.7
20:25 1008 29.77 838 24.75 8.9 48 82 6 42.8
20:30 1008 29.77 838 24.75 8.9 48 82 6 42.8
20:35 1008 29.77 838 24.75 8.9 48 82 6 42.7
20:40 1008 29.77 838 24.75 8.9 48 82 5.9 42.7
20:45 1008 29.77 838 24.75 8.9 48 81 5.9 42.7
20:50 1008 29.77 838 24.75 8.9 48.1 82 6 42.8
20:55 1008 29.77 838 24.75 9 48.1 82 6 42.8
21:00 1008 29.77 838 24.75 8.9 48 82 6.1 42.9
21:05 1008 29.77 838 24.75 8.9 47.9 82 6 42.9
21:10 1008 29.77 838 24.75 8.8 47.9 83 6.1 42.9
21:15 1008 29.77 838 24.75 8.8 47.9 83 6.1 42.9
21:20 1008 29.77 838 24.75 8.8 47.8 83 6.1 43
21:25 1008 29.77 838 24.75 8.8 47.8 83 6.1 43
21:30 1008 29.77 838 24.75 8.8 47.8 83 6.1 43
21:35 1008 29.77 838 24.75 8.8 47.8 83 6 42.9
21:40 1008 29.77 838 24.75 8.7 47.7 83 6 42.8
21:45 1008 29.77 838 24.75 8.7 47.7 83 6 42.8
21:50 1008 29.77 837 24.72 8.7 47.6 84 6.1 43.1
21:55 1008 29.77 837 24.72 8.6 47.4 85 6.2 43.2
22:00 1008 29.77 837 24.72 8.4 47.2 87 6.3 43.4
22:05 1008 29.77 837 24.72 8.2 46.8 88 6.4 43.5
22:10 1008 29.77 837 24.72 8.1 46.6 89 6.4 43.5
22:15 1008 29.77 837 24.72 8 46.4 89 6.4 43.4
22:20 1008 29.77 837 24.72 8 46.4 89 6.2 43.2
22:25 1008 29.77 837 24.72 8 46.5 88 6.1 43.1
22:30 1008 29.77 837 24.72 8 46.4 88 6.2 43.1
22:35 1008 29.77 837 24.72 8 46.3 88 6.1 42.9
22:40 1008 29.77 837 24.72 7.9 46.2 88 6.1 43
22:45 1008 29.77 837 24.72 7.8 46.1 89 6.2 43.1
22:50 1008 29.77 837 24.72 7.8 46 90 6.2 43.2
22:55 1008 29.77 837 24.72 7.7 45.9 91 6.3 43.3
23:00 1008 29.77 837 24.72 7.6 45.7 91 6.2 43.2
23:05 1007 29.74 837 24.72 7.6 45.7 91 6.2 43.1
23:10 1007 29.74 837 24.72 7.6 45.8 90 6.1 42.9
23:15 1007 29.74 837 24.72 7.7 45.8 90 6.1 43
23:20 1007 29.74 836 24.69 7.7 45.8 89 6.1 42.9
23:25 1007 29.74 836 24.69 7.7 45.8 90 6.1 43
23:30 1007 29.74 836 24.69 7.7 45.8 90 6.1 43
23:35 1007 29.74 836 24.69 7.7 45.8 89 6 42.8
23:40 1007 29.74 836 24.69 7.7 45.8 89 6 42.8
23:45 1007 29.74 836 24.69 7.7 45.9 88 5.9 42.7
23:50 1007 29.74 836 24.69 7.7 45.9 89 6 42.7
23:55 1007 29.74 836 24.69 7.7 45.9 89 6 42.8
24:00 1007 29.74 836 24.69 7.6 45.7 89 6 42.7